KTKC

Details ICAO KTKC
Name TRACY MUNI
Region United States
Timezone America/Chicago (UTC-6.0)
Plans Departing 1
Arriving 0
Stats Elevation 1,340 ft / 408 m (AMSL)
Location 44.249076° -95.607371°
Runways 3
Magnetic Variation 2.153° E
Sunrise 2017-12-13 13:51:13 UTC / 2017-12-13 07:51:13 Local
Sunset 2017-12-13 22:45:07 UTC / 2017-12-13 16:45:07 Local
Advertisement - Login to hide

Runways

ID Width Length Bearing (true) Bearing (mag) Surface Threshold Offset Overrun Length
06 200 ft / 61 m 2,514 ft / 766 m 51.17° 49.02° Grass 0 ft / 0 m 0 ft / 0 m
11 75 ft / 23 m 3,097 ft / 944 m 118.74° 116.59° Asphalt 0 ft / 0 m 0 ft / 0 m
17 200 ft / 61 m 1,906 ft / 581 m 180.00° 177.85° Grass 0 ft / 0 m 0 ft / 0 m
24 200 ft / 61 m 2,514 ft / 766 m 231.18° 229.03° Grass 0 ft / 0 m 0 ft / 0 m
29 75 ft / 23 m 3,097 ft / 944 m 298.74° 296.59° Asphalt 0 ft / 0 m 0 ft / 0 m
35 200 ft / 61 m 1,906 ft / 581 m 0.00° 357.85° Grass 0 ft / 0 m 0 ft / 0 m

Map

Weather


0- 5 10 15 20 25 30 35+ Temperature / ° C

Clouds and Precipitation
Forecast for 2017-12-13 12:00 UTC. Updated 10 minutes ago

Ground ~20,000 ft ~40,000 ft Winds

METAR

KTKC 131059Z AUTO 32026G33KT 10SM BKN120 05/M01 A2943 RMK AO2

TAF

Not found

Frequencies

Recorded 120.00 MHz AWOS 3
Unicom 122.90 MHz CTAF
Warning: Do not use this data for real-world aviation or navigation. No guarantee of current accuracy is given.